sensor_id;sensor_type;location;lat;lon;timestamp;P1;durP1;ratioP1;P2;durP2;ratioP2
4047;SDS011;2038;51.728;6.674;2022-10-16T00:01:36;30.03;;;20.27;;
4047;SDS011;2038;51.728;6.674;2022-10-16T00:04:03;23.20;;;17.50;;
4047;SDS011;2038;51.728;6.674;2022-10-16T00:06:29;21.67;;;16.40;;
4047;SDS011;2038;51.728;6.674;2022-10-16T00:08:56;23.73;;;15.20;;
4047;SDS011;2038;51.728;6.674;2022-10-16T00:11:24;20.13;;;14.70;;
4047;SDS011;2038;51.728;6.674;2022-10-16T00:14:02;19.47;;;14.50;;
4047;SDS011;2038;51.728;6.674;2022-10-16T00:16:33;17.00;;;11.90;;
4047;SDS011;2038;51.728;6.674;2022-10-16T00:19:00;14.10;;;11.83;;
4047;SDS011;2038;51.728;6.674;2022-10-16T00:21:27;19.07;;;12.63;;
4047;SDS011;2038;51.728;6.674;2022-10-16T00:23:57;14.20;;;11.43;;
4047;SDS011;2038;51.728;6.674;2022-10-16T00:26:27;21.23;;;12.93;;
4047;SDS011;2038;51.728;6.674;2022-10-16T00:28:55;11.60;;;10.20;;
4047;SDS011;2038;51.728;6.674;2022-10-16T00:31:22;13.60;;;11.37;;
4047;SDS011;2038;51.728;6.674;2022-10-16T00:33:49;12.57;;;10.17;;
4047;SDS011;2038;51.728;6.674;2022-10-16T00:36:17;15.77;;;11.27;;
4047;SDS011;2038;51.728;6.674;2022-10-16T00:38:46;13.67;;;11.00;;
4047;SDS011;2038;51.728;6.674;2022-10-16T00:41:17;11.80;;;9.47;;
4047;SDS011;2038;51.728;6.674;2022-10-16T00:43:44;15.70;;;10.40;;
4047;SDS011;2038;51.728;6.674;2022-10-16T00:46:27;15.80;;;10.50;;
4047;SDS011;2038;51.728;6.674;2022-10-16T00:49:12;20.60;;;12.73;;
4047;SDS011;2038;51.728;6.674;2022-10-16T00:51:48;13.80;;;11.07;;
4047;SDS011;2038;51.728;6.674;2022-10-16T00:54:22;12.50;;;10.10;;
4047;SDS011;2038;51.728;6.674;2022-10-16T00:56:54;13.37;;;10.10;;
4047;SDS011;2038;51.728;6.674;2022-10-16T00:59:27;13.00;;;9.30;;
4047;SDS011;2038;51.728;6.674;2022-10-16T01:01:57;11.53;;;8.60;;
4047;SDS011;2038;51.728;6.674;2022-10-16T01:04:24;13.77;;;9.70;;
4047;SDS011;2038;51.728;6.674;2022-10-16T01:17:45;8.43;;;7.37;;
4047;SDS011;2038;51.728;6.674;2022-10-16T01:20:27;7.13;;;6.30;;
4047;SDS011;2038;51.728;6.674;2022-10-16T01:23:15;10.37;;;6.83;;
4047;SDS011;2038;51.728;6.674;2022-10-16T01:31:52;11.77;;;7.50;;
4047;SDS011;2038;51.728;6.674;2022-10-16T01:34:28;9.97;;;6.93;;
4047;SDS011;2038;51.728;6.674;2022-10-16T01:37:12;13.50;;;8.50;;
4047;SDS011;2038;51.728;6.674;2022-10-16T01:39:47;9.80;;;7.10;;
4047;SDS011;2038;51.728;6.674;2022-10-16T01:42:24;9.53;;;7.73;;
4047;SDS011;2038;51.728;6.674;2022-10-16T01:44:59;10.40;;;8.30;;
4047;SDS011;2038;51.728;6.674;2022-10-16T01:47:31;10.03;;;7.17;;
4047;SDS011;2038;51.728;6.674;2022-10-16T01:50:00;8.97;;;6.93;;
4047;SDS011;2038;51.728;6.674;2022-10-16T01:52:30;10.70;;;7.10;;
4047;SDS011;2038;51.728;6.674;2022-10-16T01:55:03;9.93;;;8.07;;
4047;SDS011;2038;51.728;6.674;2022-10-16T01:57:36;8.33;;;6.13;;
4047;SDS011;2038;51.728;6.674;2022-10-16T02:00:10;6.70;;;5.47;;
4047;SDS011;2038;51.728;6.674;2022-10-16T02:02:43;7.70;;;6.23;;
4047;SDS011;2038;51.728;6.674;2022-10-16T02:05:16;9.80;;;5.97;;
4047;SDS011;2038;51.728;6.674;2022-10-16T02:07:58;9.73;;;7.10;;
4047;SDS011;2038;51.728;6.674;2022-10-16T02:10:25;9.27;;;6.37;;
4047;SDS011;2038;51.728;6.674;2022-10-16T02:13:00;17.30;;;8.37;;
4047;SDS011;2038;51.728;6.674;2022-10-16T02:15:44;15.20;;;9.50;;
4047;SDS011;2038;51.728;6.674;2022-10-16T02:18:10;12.20;;;9.80;;
4047;SDS011;2038;51.728;6.674;2022-10-16T02:21:00;21.17;;;13.33;;
4047;SDS011;2038;51.728;6.674;2022-10-16T02:26:49;25.50;;;17.90;;
4047;SDS011;2038;51.728;6.674;2022-10-16T02:29:23;26.30;;;21.27;;
4047;SDS011;2038;51.728;6.674;2022-10-16T02:32:01;37.60;;;25.80;;
4047;SDS011;2038;51.728;6.674;2022-10-16T02:34:32;38.50;;;25.90;;
4047;SDS011;2038;51.728;6.674;2022-10-16T02:37:01;30.10;;;23.37;;
4047;SDS011;2038;51.728;6.674;2022-10-16T02:39:29;30.10;;;23.00;;
4047;SDS011;2038;51.728;6.674;2022-10-16T02:41:56;29.40;;;22.40;;
4047;SDS011;2038;51.728;6.674;2022-10-16T02:44:22;29.60;;;19.17;;
4047;SDS011;2038;51.728;6.674;2022-10-16T02:46:49;32.23;;;19.33;;
4047;SDS011;2038;51.728;6.674;2022-10-16T02:49:15;20.27;;;15.03;;
4047;SDS011;2038;51.728;6.674;2022-10-16T02:51:42;19.23;;;13.27;;
4047;SDS011;2038;51.728;6.674;2022-10-16T02:54:09;11.70;;;9.50;;
4047;SDS011;2038;51.728;6.674;2022-10-16T02:56:35;14.30;;;8.07;;
4047;SDS011;2038;51.728;6.674;2022-10-16T02:59:01;8.13;;;6.60;;
4047;SDS011;2038;51.728;6.674;2022-10-16T03:01:28;8.37;;;5.70;;
4047;SDS011;2038;51.728;6.674;2022-10-16T03:03:54;8.10;;;4.27;;
4047;SDS011;2038;51.728;6.674;2022-10-16T03:06:20;7.30;;;5.03;;
4047;SDS011;2038;51.728;6.674;2022-10-16T03:08:46;7.47;;;4.40;;
4047;SDS011;2038;51.728;6.674;2022-10-16T03:11:13;5.87;;;5.07;;
4047;SDS011;2038;51.728;6.674;2022-10-16T03:13:39;7.77;;;4.90;;
4047;SDS011;2038;51.728;6.674;2022-10-16T03:16:05;6.03;;;5.43;;
4047;SDS011;2038;51.728;6.674;2022-10-16T03:18:31;9.60;;;5.97;;
4047;SDS011;2038;51.728;6.674;2022-10-16T03:20:57;5.20;;;4.70;;
4047;SDS011;2038;51.728;6.674;2022-10-16T03:23:24;7.43;;;5.20;;
4047;SDS011;2038;51.728;6.674;2022-10-16T03:25:50;5.43;;;4.77;;
4047;SDS011;2038;51.728;6.674;2022-10-16T03:28:17;8.63;;;5.07;;
4047;SDS011;2038;51.728;6.674;2022-10-16T03:30:43;9.03;;;4.47;;
4047;SDS011;2038;51.728;6.674;2022-10-16T03:33:09;5.20;;;4.70;;
4047;SDS011;2038;51.728;6.674;2022-10-16T03:35:36;4.43;;;4.00;;
4047;SDS011;2038;51.728;6.674;2022-10-16T03:38:02;4.27;;;3.73;;
4047;SDS011;2038;51.728;6.674;2022-10-16T03:40:29;3.93;;;3.30;;
4047;SDS011;2038;51.728;6.674;2022-10-16T03:42:57;3.70;;;3.03;;
4047;SDS011;2038;51.728;6.674;2022-10-16T03:45:24;5.47;;;3.20;;
4047;SDS011;2038;51.728;6.674;2022-10-16T03:47:51;4.30;;;2.87;;
4047;SDS011;2038;51.728;6.674;2022-10-16T03:50:17;3.43;;;3.10;;
4047;SDS011;2038;51.728;6.674;2022-10-16T03:52:43;6.03;;;3.37;;
4047;SDS011;2038;51.728;6.674;2022-10-16T03:55:09;2.67;;;2.47;;
4047;SDS011;2038;51.728;6.674;2022-10-16T03:57:36;3.53;;;3.23;;
4047;SDS011;2038;51.728;6.674;2022-10-16T04:00:02;3.67;;;3.30;;
4047;SDS011;2038;51.728;6.674;2022-10-16T04:02:29;4.20;;;3.27;;
4047;SDS011;2038;51.728;6.674;2022-10-16T04:04:55;4.80;;;2.87;;
4047;SDS011;2038;51.728;6.674;2022-10-16T04:07:21;4.90;;;3.60;;
4047;SDS011;2038;51.728;6.674;2022-10-16T04:09:47;4.90;;;3.37;;
4047;SDS011;2038;51.728;6.674;2022-10-16T04:12:14;6.00;;;4.10;;
4047;SDS011;2038;51.728;6.674;2022-10-16T04:14:40;4.80;;;4.30;;
4047;SDS011;2038;51.728;6.674;2022-10-16T04:17:06;5.10;;;3.53;;
4047;SDS011;2038;51.728;6.674;2022-10-16T04:19:32;5.00;;;3.83;;
4047;SDS011;2038;51.728;6.674;2022-10-16T04:21:58;5.73;;;4.30;;
4047;SDS011;2038;51.728;6.674;2022-10-16T04:24:25;4.60;;;4.20;;
4047;SDS011;2038;51.728;6.674;2022-10-16T04:26:51;5.43;;;4.80;;
4047;SDS011;2038;51.728;6.674;2022-10-16T04:29:17;6.43;;;4.40;;
4047;SDS011;2038;51.728;6.674;2022-10-16T04:31:43;5.03;;;4.43;;
4047;SDS011;2038;51.728;6.674;2022-10-16T04:34:09;6.70;;;4.40;;
4047;SDS011;2038;51.728;6.674;2022-10-16T04:36:36;14.00;;;4.90;;
4047;SDS011;2038;51.728;6.674;2022-10-16T04:39:02;8.27;;;5.77;;
4047;SDS011;2038;51.728;6.674;2022-10-16T04:41:28;8.77;;;3.90;;
4047;SDS011;2038;51.728;6.674;2022-10-16T04:43:54;5.40;;;4.40;;
4047;SDS011;2038;51.728;6.674;2022-10-16T04:46:21;3.90;;;3.47;;
4047;SDS011;2038;51.728;6.674;2022-10-16T04:48:47;5.73;;;3.67;;
4047;SDS011;2038;51.728;6.674;2022-10-16T04:51:13;4.00;;;3.60;;
4047;SDS011;2038;51.728;6.674;2022-10-16T04:53:39;6.60;;;3.73;;
4047;SDS011;2038;51.728;6.674;2022-10-16T04:56:05;6.23;;;3.23;;
4047;SDS011;2038;51.728;6.674;2022-10-16T04:58:32;3.20;;;2.40;;
4047;SDS011;2038;51.728;6.674;2022-10-16T05:00:58;5.43;;;2.70;;
4047;SDS011;2038;51.728;6.674;2022-10-16T05:03:24;3.13;;;2.83;;
4047;SDS011;2038;51.728;6.674;2022-10-16T05:05:50;3.70;;;3.23;;
4047;SDS011;2038;51.728;6.674;2022-10-16T05:08:17;3.07;;;2.57;;
4047;SDS011;2038;51.728;6.674;2022-10-16T05:10:43;3.77;;;2.30;;
4047;SDS011;2038;51.728;6.674;2022-10-16T05:13:10;2.37;;;2.17;;
4047;SDS011;2038;51.728;6.674;2022-10-16T05:15:36;2.73;;;2.47;;
4047;SDS011;2038;51.728;6.674;2022-10-16T05:18:03;3.00;;;2.33;;
4047;SDS011;2038;51.728;6.674;2022-10-16T05:20:29;3.70;;;2.77;;
4047;SDS011;2038;51.728;6.674;2022-10-16T05:22:56;3.30;;;2.83;;
4047;SDS011;2038;51.728;6.674;2022-10-16T05:25:22;10.53;;;2.37;;
4047;SDS011;2038;51.728;6.674;2022-10-16T05:27:49;1.67;;;1.57;;
4047;SDS011;2038;51.728;6.674;2022-10-16T05:30:16;4.73;;;2.30;;
4047;SDS011;2038;51.728;6.674;2022-10-16T05:32:49;3.33;;;2.37;;
4047;SDS011;2038;51.728;6.674;2022-10-16T05:35:16;2.37;;;2.17;;
4047;SDS011;2038;51.728;6.674;2022-10-16T05:37:44;3.90;;;2.70;;
4047;SDS011;2038;51.728;6.674;2022-10-16T05:40:11;2.80;;;2.50;;
4047;SDS011;2038;51.728;6.674;2022-10-16T05:42:39;4.63;;;2.90;;
4047;SDS011;2038;51.728;6.674;2022-10-16T05:45:06;14.13;;;3.00;;
4047;SDS011;2038;51.728;6.674;2022-10-16T05:47:36;4.63;;;2.20;;
4047;SDS011;2038;51.728;6.674;2022-10-16T05:50:03;3.23;;;2.47;;
4047;SDS011;2038;51.728;6.674;2022-10-16T05:52:29;3.20;;;2.97;;
4047;SDS011;2038;51.728;6.674;2022-10-16T05:54:55;2.60;;;2.40;;
4047;SDS011;2038;51.728;6.674;2022-10-16T05:57:22;4.37;;;2.70;;
4047;SDS011;2038;51.728;6.674;2022-10-16T05:59:48;2.37;;;2.17;;
4047;SDS011;2038;51.728;6.674;2022-10-16T06:02:14;11.87;;;3.10;;
4047;SDS011;2038;51.728;6.674;2022-10-16T06:04:41;2.63;;;2.30;;
4047;SDS011;2038;51.728;6.674;2022-10-16T06:07:07;10.77;;;3.07;;
4047;SDS011;2038;51.728;6.674;2022-10-16T06:09:33;3.33;;;2.80;;
4047;SDS011;2038;51.728;6.674;2022-10-16T06:11:59;3.33;;;2.30;;
4047;SDS011;2038;51.728;6.674;2022-10-16T06:14:26;5.73;;;2.30;;
4047;SDS011;2038;51.728;6.674;2022-10-16T06:16:52;6.70;;;2.60;;
4047;SDS011;2038;51.728;6.674;2022-10-16T06:19:18;3.03;;;2.40;;
4047;SDS011;2038;51.728;6.674;2022-10-16T06:21:44;2.70;;;2.47;;
4047;SDS011;2038;51.728;6.674;2022-10-16T06:24:11;3.30;;;2.80;;
4047;SDS011;2038;51.728;6.674;2022-10-16T06:26:37;4.57;;;2.87;;
4047;SDS011;2038;51.728;6.674;2022-10-16T06:29:03;5.33;;;3.00;;
4047;SDS011;2038;51.728;6.674;2022-10-16T06:31:30;3.03;;;2.73;;
4047;SDS011;2038;51.728;6.674;2022-10-16T06:33:58;6.73;;;3.73;;
4047;SDS011;2038;51.728;6.674;2022-10-16T06:36:25;8.13;;;3.60;;
4047;SDS011;2038;51.728;6.674;2022-10-16T06:38:52;4.70;;;3.30;;
4047;SDS011;2038;51.728;6.674;2022-10-16T06:41:20;4.23;;;3.50;;
4047;SDS011;2038;51.728;6.674;2022-10-16T06:43:48;5.87;;;3.10;;
4047;SDS011;2038;51.728;6.674;2022-10-16T06:46:15;2.80;;;2.60;;
4047;SDS011;2038;51.728;6.674;2022-10-16T06:48:44;3.10;;;2.80;;
4047;SDS011;2038;51.728;6.674;2022-10-16T06:51:12;5.03;;;2.97;;
4047;SDS011;2038;51.728;6.674;2022-10-16T06:53:43;3.50;;;3.20;;
4047;SDS011;2038;51.728;6.674;2022-10-16T06:56:18;3.47;;;2.70;;
4047;SDS011;2038;51.728;6.674;2022-10-16T06:58:50;2.87;;;2.60;;
4047;SDS011;2038;51.728;6.674;2022-10-16T07:01:18;10.90;;;3.40;;
4047;SDS011;2038;51.728;6.674;2022-10-16T07:03:47;2.97;;;2.67;;
4047;SDS011;2038;51.728;6.674;2022-10-16T07:06:15;4.23;;;2.70;;
4047;SDS011;2038;51.728;6.674;2022-10-16T07:08:45;3.47;;;3.17;;
4047;SDS011;2038;51.728;6.674;2022-10-16T07:11:13;3.93;;;2.87;;
4047;SDS011;2038;51.728;6.674;2022-10-16T07:13:45;3.53;;;3.00;;
4047;SDS011;2038;51.728;6.674;2022-10-16T07:16:14;5.30;;;3.07;;
4047;SDS011;2038;51.728;6.674;2022-10-16T07:18:44;6.83;;;3.70;;
4047;SDS011;2038;51.728;6.674;2022-10-16T07:21:14;3.07;;;2.80;;
4047;SDS011;2038;51.728;6.674;2022-10-16T07:23:42;3.40;;;3.10;;
4047;SDS011;2038;51.728;6.674;2022-10-16T07:26:09;5.23;;;4.13;;
4047;SDS011;2038;51.728;6.674;2022-10-16T07:28:36;4.50;;;3.23;;
4047;SDS011;2038;51.728;6.674;2022-10-16T07:31:06;14.10;;;3.43;;
4047;SDS011;2038;51.728;6.674;2022-10-16T07:33:37;5.17;;;3.27;;
4047;SDS011;2038;51.728;6.674;2022-10-16T07:36:06;5.57;;;3.57;;
4047;SDS011;2038;51.728;6.674;2022-10-16T07:38:33;8.03;;;3.13;;
4047;SDS011;2038;51.728;6.674;2022-10-16T07:41:00;6.80;;;3.40;;
4047;SDS011;2038;51.728;6.674;2022-10-16T07:43:30;5.33;;;3.57;;
4047;SDS011;2038;51.728;6.674;2022-10-16T07:45:57;6.00;;;3.00;;
4047;SDS011;2038;51.728;6.674;2022-10-16T07:48:28;5.17;;;3.30;;
4047;SDS011;2038;51.728;6.674;2022-10-16T07:50:58;7.13;;;4.10;;
4047;SDS011;2038;51.728;6.674;2022-10-16T07:53:26;5.43;;;3.50;;
4047;SDS011;2038;51.728;6.674;2022-10-16T07:55:59;5.30;;;3.90;;
4047;SDS011;2038;51.728;6.674;2022-10-16T07:58:29;7.33;;;3.30;;
4047;SDS011;2038;51.728;6.674;2022-10-16T08:00:57;5.60;;;4.10;;
4047;SDS011;2038;51.728;6.674;2022-10-16T08:03:24;7.37;;;4.00;;
4047;SDS011;2038;51.728;6.674;2022-10-16T08:05:50;6.63;;;4.13;;
4047;SDS011;2038;51.728;6.674;2022-10-16T08:08:17;4.37;;;3.97;;
4047;SDS011;2038;51.728;6.674;2022-10-16T08:10:45;7.00;;;4.10;;
4047;SDS011;2038;51.728;6.674;2022-10-16T08:13:11;5.73;;;3.50;;
4047;SDS011;2038;51.728;6.674;2022-10-16T08:15:39;6.97;;;3.50;;
4047;SDS011;2038;51.728;6.674;2022-10-16T08:18:10;7.73;;;4.03;;
4047;SDS011;2038;51.728;6.674;2022-10-16T08:20:39;6.60;;;3.97;;
4047;SDS011;2038;51.728;6.674;2022-10-16T08:23:07;6.20;;;3.63;;
4047;SDS011;2038;51.728;6.674;2022-10-16T08:25:36;3.30;;;2.83;;
4047;SDS011;2038;51.728;6.674;2022-10-16T08:28:03;6.63;;;2.90;;
4047;SDS011;2038;51.728;6.674;2022-10-16T08:30:35;5.67;;;3.00;;
4047;SDS011;2038;51.728;6.674;2022-10-16T08:33:02;4.37;;;3.33;;
4047;SDS011;2038;51.728;6.674;2022-10-16T08:35:28;7.40;;;3.30;;
4047;SDS011;2038;51.728;6.674;2022-10-16T08:37:55;6.13;;;3.10;;
4047;SDS011;2038;51.728;6.674;2022-10-16T08:40:28;5.60;;;3.50;;
4047;SDS011;2038;51.728;6.674;2022-10-16T08:49:33;2.77;;;2.57;;
4047;SDS011;2038;51.728;6.674;2022-10-16T08:52:01;4.93;;;2.50;;
4047;SDS011;2038;51.728;6.674;2022-10-16T08:57:01;9.97;;;3.00;;
4047;SDS011;2038;51.728;6.674;2022-10-16T08:59:38;6.17;;;2.80;;
4047;SDS011;2038;51.728;6.674;2022-10-16T09:02:13;5.40;;;2.90;;
4047;SDS011;2038;51.728;6.674;2022-10-16T09:13:38;7.63;;;2.50;;
4047;SDS011;2038;51.728;6.674;2022-10-16T09:16:30;4.80;;;3.17;;
4047;SDS011;2038;51.728;6.674;2022-10-16T09:19:19;5.70;;;2.97;;
4047;SDS011;2038;51.728;6.674;2022-10-16T09:22:14;4.53;;;2.73;;
4047;SDS011;2038;51.728;6.674;2022-10-16T09:24:43;5.53;;;2.63;;
4047;SDS011;2038;51.728;6.674;2022-10-16T09:27:12;5.47;;;2.90;;
4047;SDS011;2038;51.728;6.674;2022-10-16T09:29:40;10.57;;;3.67;;
4047;SDS011;2038;51.728;6.674;2022-10-16T09:32:14;3.23;;;2.70;;
4047;SDS011;2038;51.728;6.674;2022-10-16T09:34:47;4.00;;;2.90;;
4047;SDS011;2038;51.728;6.674;2022-10-16T09:37:21;5.50;;;2.50;;
4047;SDS011;2038;51.728;6.674;2022-10-16T09:39:51;3.97;;;3.07;;
4047;SDS011;2038;51.728;6.674;2022-10-16T09:42:20;5.27;;;2.63;;
4047;SDS011;2038;51.728;6.674;2022-10-16T09:44:55;9.83;;;2.83;;
4047;SDS011;2038;51.728;6.674;2022-10-16T09:47:23;3.40;;;2.47;;
4047;SDS011;2038;51.728;6.674;2022-10-16T09:50:03;6.50;;;2.80;;
4047;SDS011;2038;51.728;6.674;2022-10-16T09:52:46;6.80;;;2.27;;
4047;SDS011;2038;51.728;6.674;2022-10-16T09:55:16;3.40;;;2.67;;
4047;SDS011;2038;51.728;6.674;2022-10-16T09:57:53;5.60;;;2.53;;
4047;SDS011;2038;51.728;6.674;2022-10-16T10:00:21;3.67;;;2.90;;
4047;SDS011;2038;51.728;6.674;2022-10-16T10:02:49;4.47;;;2.33;;
4047;SDS011;2038;51.728;6.674;2022-10-16T10:05:18;7.30;;;2.70;;
4047;SDS011;2038;51.728;6.674;2022-10-16T10:07:57;8.97;;;3.10;;
4047;SDS011;2038;51.728;6.674;2022-10-16T10:10:33;6.53;;;2.47;;
4047;SDS011;2038;51.728;6.674;2022-10-16T10:13:20;5.30;;;2.90;;
4047;SDS011;2038;51.728;6.674;2022-10-16T10:15:51;10.87;;;2.60;;
4047;SDS011;2038;51.728;6.674;2022-10-16T10:18:19;4.00;;;2.60;;
4047;SDS011;2038;51.728;6.674;2022-10-16T10:21:01;7.53;;;3.40;;
4047;SDS011;2038;51.728;6.674;2022-10-16T10:23:30;3.80;;;2.53;;
4047;SDS011;2038;51.728;6.674;2022-10-16T10:31:57;6.73;;;2.07;;
4047;SDS011;2038;51.728;6.674;2022-10-16T10:37:28;5.53;;;1.87;;
4047;SDS011;2038;51.728;6.674;2022-10-16T10:40:43;3.70;;;2.03;;
4047;SDS011;2038;51.728;6.674;2022-10-16T10:46:34;4.10;;;1.90;;
4047;SDS011;2038;51.728;6.674;2022-10-16T10:49:42;7.70;;;2.70;;
4047;SDS011;2038;51.728;6.674;2022-10-16T10:55:32;3.00;;;1.73;;
4047;SDS011;2038;51.728;6.674;2022-10-16T10:58:39;8.03;;;2.30;;
4047;SDS011;2038;51.728;6.674;2022-10-16T11:01:39;4.43;;;2.10;;
4047;SDS011;2038;51.728;6.674;2022-10-16T11:04:47;4.10;;;1.90;;
4047;SDS011;2038;51.728;6.674;2022-10-16T11:07:27;9.63;;;2.60;;
4047;SDS011;2038;51.728;6.674;2022-10-16T11:10:05;6.00;;;2.37;;
4047;SDS011;2038;51.728;6.674;2022-10-16T11:12:46;3.33;;;2.20;;
4047;SDS011;2038;51.728;6.674;2022-10-16T11:15:38;4.67;;;1.87;;
4047;SDS011;2038;51.728;6.674;2022-10-16T11:21:16;9.27;;;1.90;;
4047;SDS011;2038;51.728;6.674;2022-10-16T11:23:50;5.37;;;2.00;;
4047;SDS011;2038;51.728;6.674;2022-10-16T11:26:40;7.37;;;2.00;;
4047;SDS011;2038;51.728;6.674;2022-10-16T11:29:13;11.67;;;2.27;;
4047;SDS011;2038;51.728;6.674;2022-10-16T11:32:07;5.03;;;2.23;;
4047;SDS011;2038;51.728;6.674;2022-10-16T11:35:15;10.50;;;3.13;;
4047;SDS011;2038;51.728;6.674;2022-10-16T11:37:54;7.03;;;1.90;;
4047;SDS011;2038;51.728;6.674;2022-10-16T11:40:27;10.00;;;2.33;;
4047;SDS011;2038;51.728;6.674;2022-10-16T11:43:02;8.93;;;2.43;;
4047;SDS011;2038;51.728;6.674;2022-10-16T11:45:45;3.17;;;1.60;;
4047;SDS011;2038;51.728;6.674;2022-10-16T11:48:36;6.43;;;2.60;;
4047;SDS011;2038;51.728;6.674;2022-10-16T11:51:16;13.57;;;2.97;;
4047;SDS011;2038;51.728;6.674;2022-10-16T11:54:01;7.43;;;2.60;;
4047;SDS011;2038;51.728;6.674;2022-10-16T11:56:46;5.03;;;2.30;;
4047;SDS011;2038;51.728;6.674;2022-10-16T11:59:26;3.53;;;1.90;;
4047;SDS011;2038;51.728;6.674;2022-10-16T12:02:23;6.13;;;1.90;;
4047;SDS011;2038;51.728;6.674;2022-10-16T12:10:36;10.43;;;2.00;;
4047;SDS011;2038;51.728;6.674;2022-10-16T12:13:27;5.57;;;1.77;;
4047;SDS011;2038;51.728;6.674;2022-10-16T12:16:04;5.23;;;1.70;;
4047;SDS011;2038;51.728;6.674;2022-10-16T12:18:43;7.53;;;2.73;;
4047;SDS011;2038;51.728;6.674;2022-10-16T12:21:11;7.10;;;2.17;;
4047;SDS011;2038;51.728;6.674;2022-10-16T12:23:48;8.07;;;2.23;;
4047;SDS011;2038;51.728;6.674;2022-10-16T12:26:31;6.70;;;1.67;;
4047;SDS011;2038;51.728;6.674;2022-10-16T12:31:57;4.23;;;2.30;;
4047;SDS011;2038;51.728;6.674;2022-10-16T12:34:27;9.00;;;1.97;;
4047;SDS011;2038;51.728;6.674;2022-10-16T12:37:10;7.40;;;2.20;;
4047;SDS011;2038;51.728;6.674;2022-10-16T12:39:48;8.40;;;2.00;;
4047;SDS011;2038;51.728;6.674;2022-10-16T12:42:22;4.70;;;1.70;;
4047;SDS011;2038;51.728;6.674;2022-10-16T12:44:51;6.63;;;1.97;;
4047;SDS011;2038;51.728;6.674;2022-10-16T12:49:57;6.27;;;2.00;;
4047;SDS011;2038;51.728;6.674;2022-10-16T12:55:04;16.03;;;2.47;;
4047;SDS011;2038;51.728;6.674;2022-10-16T13:23:37;7.10;;;2.20;;
4047;SDS011;2038;51.728;6.674;2022-10-16T13:26:37;10.33;;;2.10;;
4047;SDS011;2038;51.728;6.674;2022-10-16T13:29:32;8.47;;;1.57;;
4047;SDS011;2038;51.728;6.674;2022-10-16T13:31:59;2.37;;;1.40;;
4047;SDS011;2038;51.728;6.674;2022-10-16T13:34:41;8.00;;;1.43;;
4047;SDS011;2038;51.728;6.674;2022-10-16T13:37:20;8.03;;;1.80;;
4047;SDS011;2038;51.728;6.674;2022-10-16T13:39:49;4.47;;;1.60;;
4047;SDS011;2038;51.728;6.674;2022-10-16T13:42:23;4.77;;;2.03;;
4047;SDS011;2038;51.728;6.674;2022-10-16T13:44:55;7.23;;;1.97;;
4047;SDS011;2038;51.728;6.674;2022-10-16T13:47:23;5.80;;;2.00;;
4047;SDS011;2038;51.728;6.674;2022-10-16T13:50:11;4.70;;;1.20;;
4047;SDS011;2038;51.728;6.674;2022-10-16T13:52:40;3.87;;;1.43;;
4047;SDS011;2038;51.728;6.674;2022-10-16T13:55:10;4.23;;;1.80;;
4047;SDS011;2038;51.728;6.674;2022-10-16T13:57:37;4.17;;;1.67;;
4047;SDS011;2038;51.728;6.674;2022-10-16T14:00:20;2.70;;;1.50;;
4047;SDS011;2038;51.728;6.674;2022-10-16T14:02:51;3.67;;;1.67;;
4047;SDS011;2038;51.728;6.674;2022-10-16T14:05:26;7.63;;;1.87;;
4047;SDS011;2038;51.728;6.674;2022-10-16T14:07:52;4.53;;;1.83;;
4047;SDS011;2038;51.728;6.674;2022-10-16T14:10:25;7.10;;;1.87;;
4047;SDS011;2038;51.728;6.674;2022-10-16T14:12:57;2.50;;;1.53;;
4047;SDS011;2038;51.728;6.674;2022-10-16T14:15:27;12.03;;;1.93;;
4047;SDS011;2038;51.728;6.674;2022-10-16T14:17:56;8.13;;;1.60;;
4047;SDS011;2038;51.728;6.674;2022-10-16T14:20:25;4.50;;;1.70;;
4047;SDS011;2038;51.728;6.674;2022-10-16T14:23:00;3.10;;;1.27;;
4047;SDS011;2038;51.728;6.674;2022-10-16T14:25:31;7.07;;;2.20;;
4047;SDS011;2038;51.728;6.674;2022-10-16T14:36:04;5.87;;;1.40;;
4047;SDS011;2038;51.728;6.674;2022-10-16T14:38:38;1.90;;;1.70;;
4047;SDS011;2038;51.728;6.674;2022-10-16T14:41:07;6.63;;;1.80;;
4047;SDS011;2038;51.728;6.674;2022-10-16T14:43:38;4.33;;;1.30;;
4047;SDS011;2038;51.728;6.674;2022-10-16T14:46:29;2.50;;;1.50;;
4047;SDS011;2038;51.728;6.674;2022-10-16T14:51:40;3.73;;;1.63;;
4047;SDS011;2038;51.728;6.674;2022-10-16T14:54:09;4.10;;;1.47;;
4047;SDS011;2038;51.728;6.674;2022-10-16T14:56:48;1.87;;;1.50;;
4047;SDS011;2038;51.728;6.674;2022-10-16T15:02:15;2.63;;;1.40;;
4047;SDS011;2038;51.728;6.674;2022-10-16T15:04:45;2.73;;;2.20;;
4047;SDS011;2038;51.728;6.674;2022-10-16T15:07:12;2.70;;;1.47;;
4047;SDS011;2038;51.728;6.674;2022-10-16T15:09:38;6.87;;;2.30;;
4047;SDS011;2038;51.728;6.674;2022-10-16T15:12:04;3.93;;;1.27;;
4047;SDS011;2038;51.728;6.674;2022-10-16T15:14:31;2.00;;;1.40;;
4047;SDS011;2038;51.728;6.674;2022-10-16T15:16:57;5.10;;;1.00;;
4047;SDS011;2038;51.728;6.674;2022-10-16T15:19:23;3.77;;;1.50;;
4047;SDS011;2038;51.728;6.674;2022-10-16T15:21:50;3.50;;;1.57;;
4047;SDS011;2038;51.728;6.674;2022-10-16T15:24:17;4.73;;;2.10;;
4047;SDS011;2038;51.728;6.674;2022-10-16T15:26:44;4.77;;;1.60;;
4047;SDS011;2038;51.728;6.674;2022-10-16T15:29:14;3.67;;;1.60;;
4047;SDS011;2038;51.728;6.674;2022-10-16T15:31:40;1.50;;;1.13;;
4047;SDS011;2038;51.728;6.674;2022-10-16T15:34:12;5.30;;;2.40;;
4047;SDS011;2038;51.728;6.674;2022-10-16T15:36:39;2.40;;;1.80;;
4047;SDS011;2038;51.728;6.674;2022-10-16T15:39:06;3.53;;;1.67;;
4047;SDS011;2038;51.728;6.674;2022-10-16T15:41:42;2.50;;;1.80;;
4047;SDS011;2038;51.728;6.674;2022-10-16T15:44:15;2.20;;;1.63;;
4047;SDS011;2038;51.728;6.674;2022-10-16T15:46:42;1.60;;;1.50;;
4047;SDS011;2038;51.728;6.674;2022-10-16T15:49:08;5.73;;;1.93;;
4047;SDS011;2038;51.728;6.674;2022-10-16T15:51:39;4.27;;;1.90;;
4047;SDS011;2038;51.728;6.674;2022-10-16T15:54:07;2.60;;;1.43;;
4047;SDS011;2038;51.728;6.674;2022-10-16T15:56:34;2.73;;;1.27;;
4047;SDS011;2038;51.728;6.674;2022-10-16T15:59:01;2.40;;;1.30;;
4047;SDS011;2038;51.728;6.674;2022-10-16T16:01:31;3.37;;;1.30;;
4047;SDS011;2038;51.728;6.674;2022-10-16T16:03:59;2.70;;;1.80;;
4047;SDS011;2038;51.728;6.674;2022-10-16T16:06:25;2.70;;;1.50;;
4047;SDS011;2038;51.728;6.674;2022-10-16T16:08:52;1.43;;;1.33;;
4047;SDS011;2038;51.728;6.674;2022-10-16T16:11:18;2.50;;;1.40;;
4047;SDS011;2038;51.728;6.674;2022-10-16T16:13:47;4.83;;;2.70;;
4047;SDS011;2038;51.728;6.674;2022-10-16T16:16:15;3.93;;;2.33;;
4047;SDS011;2038;51.728;6.674;2022-10-16T16:18:44;3.97;;;2.30;;
4047;SDS011;2038;51.728;6.674;2022-10-16T16:21:11;5.00;;;2.03;;
4047;SDS011;2038;51.728;6.674;2022-10-16T16:23:38;3.83;;;2.30;;
4047;SDS011;2038;51.728;6.674;2022-10-16T16:28:50;4.73;;;2.77;;
4047;SDS011;2038;51.728;6.674;2022-10-16T16:31:18;3.73;;;2.57;;
4047;SDS011;2038;51.728;6.674;2022-10-16T16:33:46;3.37;;;2.40;;
4047;SDS011;2038;51.728;6.674;2022-10-16T16:36:12;3.67;;;2.33;;
4047;SDS011;2038;51.728;6.674;2022-10-16T16:38:38;3.00;;;2.60;;
4047;SDS011;2038;51.728;6.674;2022-10-16T16:41:11;5.67;;;2.80;;
4047;SDS011;2038;51.728;6.674;2022-10-16T16:43:44;4.43;;;2.53;;
4047;SDS011;2038;51.728;6.674;2022-10-16T16:46:12;2.57;;;2.00;;
4047;SDS011;2038;51.728;6.674;2022-10-16T16:48:40;6.00;;;2.90;;
4047;SDS011;2038;51.728;6.674;2022-10-16T16:51:07;3.03;;;2.80;;
4047;SDS011;2038;51.728;6.674;2022-10-16T16:53:44;2.70;;;2.37;;
4047;SDS011;2038;51.728;6.674;2022-10-16T16:56:13;8.13;;;3.23;;
4047;SDS011;2038;51.728;6.674;2022-10-16T16:58:41;7.80;;;4.00;;
4047;SDS011;2038;51.728;6.674;2022-10-16T17:01:10;14.13;;;6.40;;
4047;SDS011;2038;51.728;6.674;2022-10-16T17:03:37;8.30;;;4.63;;
4047;SDS011;2038;51.728;6.674;2022-10-16T17:06:11;7.30;;;5.70;;
4047;SDS011;2038;51.728;6.674;2022-10-16T17:08:39;9.53;;;4.10;;
4047;SDS011;2038;51.728;6.674;2022-10-16T17:11:11;7.60;;;4.50;;
4047;SDS011;2038;51.728;6.674;2022-10-16T17:13:40;6.00;;;4.00;;
4047;SDS011;2038;51.728;6.674;2022-10-16T17:16:07;8.53;;;3.67;;
4047;SDS011;2038;51.728;6.674;2022-10-16T17:18:33;2.70;;;2.20;;
4047;SDS011;2038;51.728;6.674;2022-10-16T17:21:00;3.00;;;2.40;;
4047;SDS011;2038;51.728;6.674;2022-10-16T17:23:30;3.57;;;2.00;;
4047;SDS011;2038;51.728;6.674;2022-10-16T17:26:01;3.13;;;2.27;;
4047;SDS011;2038;51.728;6.674;2022-10-16T17:28:37;3.87;;;3.27;;
4047;SDS011;2038;51.728;6.674;2022-10-16T17:31:12;3.67;;;2.10;;